Time;durP1;ratioP1;P1;durP2;ratioP2;P2;SDS_P1;SDS_P2;PMS_P1;PMS_P2;Temp;Humidity;BMP_temperature;BMP_pressure;BME280_temperature;BME280_humidity;BME280_pressure;Samples;Min_cycle;Max_cycle;Signal;HPM_P1;HPM_P2
2023/03/10 05:04:48;;;;;;;0.50;0.50;;;10.60;99.90;;;;;;5744054;22;20232;-66
2023/03/10 05:07:14;;;;;;;0.60;0.60;;;10.70;99.90;;;;;;5052600;28;20213;-67
2023/03/10 05:09:40;;;;;;;0.40;0.40;;;10.80;99.90;;;;;;5054027;28;20164;-67
2023/03/10 05:12:06;;;;;;;0.90;0.50;;;10.80;99.90;;;;;;5054189;28;20197;-67
2023/03/10 05:14:31;;;;;;;0.50;0.45;;;10.80;99.90;;;;;;5052876;28;20193;-67
2023/03/10 05:16:57;;;;;;;1.27;0.43;;;10.80;99.90;;;;;;5054192;28;20181;-67
2023/03/10 05:19:23;;;;;;;0.53;0.53;;;10.80;99.90;;;;;;5052697;28;20173;-68
2023/03/10 05:21:49;;;;;;;0.32;0.32;;;10.80;99.90;;;;;;5053877;28;20177;-67
2023/03/10 05:24:14;;;;;;;0.40;0.40;;;10.70;99.90;;;;;;5053589;28;20201;-67
2023/03/10 05:26:40;;;;;;;0.50;0.50;;;10.70;99.90;;;;;;5053775;28;20211;-67
2023/03/10 05:29:06;;;;;;;0.40;0.40;;;10.60;99.90;;;;;;5053539;28;20197;-68
2023/03/10 05:31:31;;;;;;;0.40;0.40;;;10.50;99.90;;;;;;5053630;28;20423;-67
2023/03/10 05:33:57;;;;;;;1.80;0.50;;;10.50;99.90;;;;;;5052625;28;20189;-68
2023/03/10 05:36:23;;;;;;;0.60;0.60;;;10.40;99.90;;;;;;5052364;28;20174;-68
2023/03/10 05:38:49;;;;;;;0.47;0.47;;;10.40;99.90;;;;;;5053623;28;20205;-68
2023/03/10 05:41:15;;;;;;;0.47;0.47;;;10.30;99.90;;;;;;5052328;28;20415;-68
2023/03/10 05:43:40;;;;;;;0.40;0.40;;;10.30;99.90;;;;;;5052977;28;20181;-68
2023/03/10 05:46:06;;;;;;;1.53;0.70;;;10.30;99.90;;;;;;5053481;28;20200;-67
2023/03/10 05:48:32;;;;;;;0.80;0.80;;;10.20;99.90;;;;;;5053309;28;20170;-67
2023/03/10 05:51:05;;;;;;;4.90;0.57;;;10.20;99.90;;;;;;5053456;28;20169;-68
2023/03/10 05:53:32;;;;;;;1.30;0.70;;;10.30;99.90;;;;;;5051868;28;20691;-67
2023/03/10 05:55:58;;;;;;;0.38;0.38;;;10.30;99.90;;;;;;5053212;28;20590;-68
2023/03/10 05:58:26;;;;;;;0.60;0.50;;;10.30;99.90;;;;;;5053194;28;20180;-68
2023/03/10 06:00:52;;;;;;;0.57;0.57;;;10.30;99.90;;;;;;5053100;28;20315;-67
2023/03/10 06:03:18;;;;;;;0.68;0.68;;;10.30;99.90;;;;;;5052914;28;20201;-68
2023/03/10 06:05:44;;;;;;;0.95;0.93;;;10.40;99.90;;;;;;5052573;28;20213;-68
2023/03/10 06:08:10;;;;;;;1.30;1.13;;;10.50;99.90;;;;;;5053138;28;20239;-67
2023/03/10 06:10:36;;;;;;;1.73;0.60;;;10.60;99.90;;;;;;5052978;28;20980;-68
2023/03/10 06:13:01;;;;;;;1.17;0.60;;;10.70;99.90;;;;;;5052525;28;20942;-67
2023/03/10 06:15:27;;;;;;;0.70;0.60;;;10.80;99.90;;;;;;5052193;28;20615;-68
2023/03/10 06:17:52;;;;;;;0.67;0.40;;;10.90;99.90;;;;;;5052820;28;20188;-68
2023/03/10 06:20:18;;;;;;;0.60;0.60;;;10.90;99.90;;;;;;5053166;28;20171;-68
2023/03/10 06:22:44;;;;;;;0.60;0.60;;;10.90;99.90;;;;;;5052474;28;20575;-69
2023/03/10 06:25:09;;;;;;;1.60;0.70;;;10.90;99.90;;;;;;5052383;28;20681;-68
2023/03/10 06:27:35;;;;;;;1.13;0.50;;;11.00;99.90;;;;;;5056735;28;20553;-67
2023/03/10 06:30:01;;;;;;;0.37;0.37;;;11.00;99.90;;;;;;5056871;28;20162;-68
2023/03/10 06:32:26;;;;;;;0.70;0.50;;;11.00;99.90;;;;;;5056944;28;20250;-69
2023/03/10 06:34:52;;;;;;;0.93;0.50;;;11.00;99.90;;;;;;5056244;28;20192;-68
2023/03/10 06:37:18;;;;;;;4.20;0.80;;;10.90;99.90;;;;;;5055181;28;20174;-67
2023/03/10 06:39:43;;;;;;;1.03;1.03;;;10.70;99.90;;;;;;5056931;28;20252;-67
2023/03/10 06:42:09;;;;;;;0.53;0.50;;;10.60;99.90;;;;;;5056396;28;20213;-69
2023/03/10 06:44:35;;;;;;;0.50;0.50;;;10.40;99.90;;;;;;5038792;28;20201;-70
2023/03/10 06:47:03;;;;;;;0.50;0.50;;;10.40;99.90;;;;;;5053897;28;20201;-71
2023/03/10 06:49:30;;;;;;;0.40;0.40;;;10.30;99.90;;;;;;5055124;28;20515;-70
2023/03/10 06:51:56;;;;;;;0.43;0.43;;;10.20;99.90;;;;;;5056344;28;20177;-71
2023/03/10 06:54:22;;;;;;;0.50;0.40;;;10.20;99.90;;;;;;5055783;28;20716;-66
2023/03/10 06:56:48;;;;;;;1.90;0.80;;;10.20;99.90;;;;;;5056119;28;20169;-65
2023/03/10 06:59:14;;;;;;;0.40;0.40;;;10.20;99.90;;;;;;5055959;28;20202;-65
2023/03/10 07:01:39;;;;;;;0.50;0.33;;;10.20;99.90;;;;;;5056216;28;20600;-68
2023/03/10 07:04:05;;;;;;;0.50;0.50;;;10.20;99.90;;;;;;5055168;28;20849;-67
2023/03/10 07:06:31;;;;;;;0.30;0.30;;;10.30;99.90;;;;;;5055569;28;20251;-65
2023/03/10 07:08:57;;;;;;;0.30;0.30;;;10.40;99.90;;;;;;5055826;28;20586;-66
2023/03/10 07:11:24;;;;;;;0.80;0.80;;;10.40;99.90;;;;;;5055133;28;20396;-68
2023/03/10 07:13:50;;;;;;;0.43;0.43;;;10.50;99.90;;;;;;5054291;28;20436;-67
2023/03/10 07:16:16;;;;;;;0.30;0.30;;;10.60;99.90;;;;;;5055134;28;20502;-67
2023/03/10 07:18:42;;;;;;;0.40;0.40;;;10.70;99.90;;;;;;5054391;28;20175;-66
2023/03/10 07:21:10;;;;;;;0.40;0.40;;;11.00;99.90;;;;;;5054090;28;20424;-65
2023/03/10 07:23:36;;;;;;;0.30;0.30;;;11.30;99.90;;;;;;5055587;28;20179;-68
2023/03/10 07:26:04;;;;;;;0.40;0.38;;;11.30;99.90;;;;;;5056138;28;20935;-68
2023/03/10 07:28:30;;;;;;;1.17;0.50;;;11.30;99.90;;;;;;5055920;28;20174;-68
2023/03/10 07:30:56;;;;;;;0.40;0.40;;;11.30;99.90;;;;;;5055707;28;20416;-66
2023/03/10 07:33:22;;;;;;;0.40;0.40;;;11.30;99.90;;;;;;5055028;28;20187;-67
2023/03/10 07:35:49;;;;;;;0.50;0.50;;;11.40;99.90;;;;;;5055853;28;20432;-67
2023/03/10 07:38:14;;;;;;;0.50;0.50;;;11.50;99.90;;;;;;5055165;28;20271;-66
2023/03/10 07:40:40;;;;;;;2.10;0.50;;;11.70;99.90;;;;;;5055788;28;20445;-67
2023/03/10 07:43:06;;;;;;;0.67;0.57;;;12.00;99.90;;;;;;5055552;28;20604;-67
2023/03/10 07:45:32;;;;;;;0.30;0.30;;;12.20;99.90;;;;;;5055290;28;20217;-67
2023/03/10 07:47:58;;;;;;;0.40;0.40;;;12.30;99.90;;;;;;5055568;28;20198;-69
2023/03/10 07:50:24;;;;;;;0.50;0.50;;;12.30;99.90;;;;;;5055631;28;20407;-68
2023/03/10 07:52:50;;;;;;;0.40;0.40;;;12.20;99.90;;;;;;5055359;28;20465;-67
2023/03/10 07:55:16;;;;;;;0.40;0.40;;;12.10;99.90;;;;;;5055437;28;20851;-66
2023/03/10 07:57:41;;;;;;;0.63;0.50;;;12.00;99.90;;;;;;5055384;28;20187;-66
2023/03/10 08:00:08;;;;;;;0.70;0.40;;;11.90;99.90;;;;;;5054025;28;20517;-68
2023/03/10 08:02:33;;;;;;;0.83;0.83;;;11.80;99.90;;;;;;5055129;28;20197;-69
2023/03/10 08:04:59;;;;;;;1.47;0.70;;;11.70;99.90;;;;;;5054795;28;20446;-69
2023/03/10 08:07:26;;;;;;;1.27;0.60;;;11.70;99.90;;;;;;5054604;28;20216;-68
2023/03/10 08:09:53;;;;;;;0.60;0.47;;;11.70;99.90;;;;;;5055321;28;20186;-67
2023/03/10 08:12:20;;;;;;;0.90;0.60;;;11.60;99.90;;;;;;5053840;28;20414;-67
2023/03/10 08:14:47;;;;;;;0.60;0.60;;;11.60;99.90;;;;;;5054487;28;20449;-66
2023/03/10 08:17:13;;;;;;;3.33;0.60;;;11.50;99.90;;;;;;5054873;28;20428;-68
2023/03/10 08:19:39;;;;;;;0.50;0.47;;;11.50;99.90;;;;;;5054891;28;20456;-69
2023/03/10 08:22:04;;;;;;;2.20;0.80;;;11.40;99.90;;;;;;5054887;28;20911;-67
2023/03/10 08:24:30;;;;;;;0.47;0.47;;;11.20;99.90;;;;;;5054635;28;20202;-66
2023/03/10 08:26:56;;;;;;;1.00;0.90;;;11.00;99.90;;;;;;5054759;28;20565;-67
2023/03/10 08:29:22;;;;;;;0.93;0.80;;;10.90;99.90;;;;;;5054846;28;20702;-67
2023/03/10 08:31:49;;;;;;;1.45;1.30;;;10.80;99.90;;;;;;5054559;28;20215;-68
2023/03/10 08:34:15;;;;;;;0.80;0.60;;;10.60;99.90;;;;;;5054333;28;20228;-67
2023/03/10 08:36:41;;;;;;;0.90;0.90;;;10.60;99.90;;;;;;5054797;28;20260;-66
2023/03/10 08:39:07;;;;;;;0.70;0.70;;;10.40;99.90;;;;;;5054509;28;20169;-67
2023/03/10 08:41:47;;;;;;;1.37;1.23;;;10.40;99.90;;;;;;5054814;28;20278;-67
2023/03/10 08:44:16;;;;;;;0.60;0.60;;;10.40;99.90;;;;;;5052881;28;20448;-68
2023/03/10 08:46:44;;;;;;;0.40;0.40;;;10.40;99.90;;;;;;5054276;28;20285;-68
2023/03/10 08:49:10;;;;;;;0.55;0.52;;;10.40;99.90;;;;;;5053106;28;20175;-68
2023/03/10 08:51:36;;;;;;;1.42;0.65;;;10.50;99.90;;;;;;5054868;28;20703;-66
2023/03/10 08:54:03;;;;;;;0.93;0.43;;;10.50;99.90;;;;;;5054082;28;20276;-68
2023/03/10 08:56:28;;;;;;;0.60;0.60;;;10.50;99.90;;;;;;5054419;28;20189;-68
2023/03/10 08:58:59;;;;;;;3.50;0.80;;;10.80;99.90;;;;;;5054112;28;20202;-67
2023/03/10 09:01:31;;;;;;;0.70;0.60;;;11.70;99.90;;;;;;5054084;28;20553;-67
2023/03/10 09:03:58;;;;;;;0.50;0.50;;;12.80;99.90;;;;;;5053697;28;20444;-67
2023/03/10 09:06:23;;;;;;;0.50;0.30;;;13.20;99.90;;;;;;5053964;28;20486;-68
2023/03/10 09:08:49;;;;;;;0.40;0.40;;;13.20;99.90;;;;;;5054128;28;20809;-68
2023/03/10 09:11:36;;;;;;;0.40;0.40;;;13.00;99.90;;;;;;5054038;28;20170;-67
2023/03/10 09:14:02;;;;;;;0.43;0.33;;;13.80;99.90;;;;;;5053429;28;20190;-67
2023/03/10 09:16:29;;;;;;;0.80;0.30;;;15.20;99.90;;;;;;5053317;28;20926;-70
2023/03/10 09:18:57;;;;;;;0.40;0.40;;;16.70;99.90;;;;;;5053791;28;20903;-68
2023/03/10 09:21:23;;;;;;;0.60;0.60;;;18.20;99.90;;;;;;5053857;28;20550;-66
2023/03/10 09:23:51;;;;;;;0.60;0.50;;;19.50;99.90;;;;;;5053380;28;20915;-70
2023/03/10 09:26:18;;;;;;;0.63;0.63;;;20.10;97.80;;;;;;5053837;28;20464;-67
2023/03/10 09:28:44;;;;;;;0.67;0.67;;;20.00;96.40;;;;;;5053841;28;20397;-71
2023/03/10 09:31:15;;;;;;;1.00;0.90;;;19.40;96.10;;;;;;5053368;28;20414;-70
2023/03/10 09:33:41;;;;;;;1.70;1.60;;;18.70;97.20;;;;;;5053302;28;20198;-67
2023/03/10 09:36:07;;;;;;;1.30;1.30;;;18.00;97.60;;;;;;5053755;28;20455;-67
2023/03/10 09:38:33;;;;;;;2.00;0.40;;;17.70;98.50;;;;;;5053780;28;20573;-67
2023/03/10 09:41:17;;;;;;;0.60;0.60;;;17.50;99.00;;;;;;5053516;28;20436;-69
2023/03/10 09:43:53;;;;;;;0.50;0.50;;;17.40;98.50;;;;;;5053280;28;20393;-69
2023/03/10 09:46:24;;;;;;;0.53;0.53;;;17.30;98.80;;;;;;5053170;28;20556;-67
2023/03/10 09:48:59;;;;;;;0.50;0.50;;;17.20;99.80;;;;;;5053625;28;20420;-67
2023/03/10 09:51:27;;;;;;;1.77;1.00;;;17.20;99.70;;;;;;5053244;28;20699;-68
2023/03/10 09:54:10;;;;;;;0.70;0.63;;;16.80;99.60;;;;;;5051233;28;20423;-68
2023/03/10 09:56:36;;;;;;;1.23;0.70;;;16.40;99.60;;;;;;5053530;28;20403;-68
2023/03/10 09:59:10;;;;;;;1.90;0.80;;;15.70;99.70;;;;;;5053358;28;20748;-68
2023/03/10 10:01:38;;;;;;;0.70;0.70;;;15.10;99.90;;;;;;5053074;28;20477;-68
2023/03/10 10:04:38;;;;;;;2.43;1.70;;;14.50;99.90;;;;;;5052834;28;20450;-67
2023/03/10 10:07:13;;;;;;;0.73;0.57;;;14.10;99.90;;;;;;5030888;28;20549;-69
2023/03/10 10:10:03;;;;;;;2.53;0.80;;;13.80;99.90;;;;;;5054839;28;20881;-68
2023/03/10 10:12:28;;;;;;;0.97;0.97;;;13.60;99.90;;;;;;5056089;28;20891;-66
2023/03/10 10:15:01;;;;;;;0.67;0.50;;;13.40;99.90;;;;;;5056792;28;20431;-68
2023/03/10 10:17:48;;;;;;;0.30;0.30;;;13.30;99.90;;;;;;5057650;28;20207;-69
2023/03/10 10:20:27;;;;;;;1.07;0.70;;;13.20;99.90;;;;;;5058098;28;20502;-67
2023/03/10 10:22:53;;;;;;;0.30;0.30;;;13.10;99.90;;;;;;5058037;28;20407;-66
2023/03/10 10:25:21;;;;;;;0.50;0.50;;;13.00;99.90;;;;;;5055769;28;20507;-67
2023/03/10 10:27:51;;;;;;;1.10;0.70;;;12.90;99.90;;;;;;5053122;28;20595;-66
2023/03/10 10:30:37;;;;;;;0.50;0.50;;;12.80;99.90;;;;;;5053907;28;20404;-68
2023/03/10 10:33:08;;;;;;;0.60;0.40;;;12.80;99.90;;;;;;5052953;28;20419;-68
2023/03/10 10:35:40;;;;;;;0.63;0.63;;;12.70;99.90;;;;;;5053237;28;20796;-66
2023/03/10 10:38:09;;;;;;;0.30;0.30;;;12.60;99.90;;;;;;5053103;28;20434;-67
2023/03/10 10:40:46;;;;;;;0.40;0.40;;;12.50;99.90;;;;;;5052868;28;20718;-67
2023/03/10 10:43:19;;;;;;;0.37;0.33;;;12.50;99.90;;;;;;5052769;28;20456;-69
2023/03/10 10:45:53;;;;;;;2.70;0.50;;;12.50;99.90;;;;;;5052626;28;20454;-67
2023/03/10 10:48:39;;;;;;;0.60;0.40;;;12.50;99.90;;;;;;5053041;28;20409;-69
2023/03/10 10:51:23;;;;;;;0.53;0.47;;;12.50;99.90;;;;;;5052720;28;20775;-68
2023/03/10 10:53:49;;;;;;;0.77;0.77;;;12.50;99.90;;;;;;5052228;28;20414;-67
2023/03/10 10:56:16;;;;;;;0.60;0.60;;;12.50;99.90;;;;;;5052636;28;20917;-69
2023/03/10 10:58:45;;;;;;;0.90;0.43;;;12.40;99.90;;;;;;5052924;28;20399;-67
2023/03/10 11:01:14;;;;;;;0.70;0.50;;;12.40;99.90;;;;;;5052692;28;20410;-67
2023/03/10 11:03:43;;;;;;;0.73;0.73;;;12.30;99.90;;;;;;5052576;28;20468;-69
2023/03/10 11:06:26;;;;;;;0.60;0.60;;;12.40;99.90;;;;;;5052606;28;20460;-68
2023/03/10 11:09:03;;;;;;;0.70;0.70;;;12.40;99.90;;;;;;5052670;28;20914;-68
2023/03/10 11:11:50;;;;;;;2.43;0.80;;;12.40;99.90;;;;;;5052210;28;20433;-68
2023/03/10 11:14:34;;;;;;;0.97;0.43;;;12.40;99.90;;;;;;5055943;28;20436;-68
2023/03/10 11:17:20;;;;;;;0.60;0.60;;;12.50;99.90;;;;;;5056388;28;20407;-68
2023/03/10 11:20:06;;;;;;;0.67;0.60;;;12.50;99.90;;;;;;5056222;28;20406;-69
2023/03/10 11:22:49;;;;;;;0.30;0.30;;;12.60;99.90;;;;;;5056048;28;20395;-67
2023/03/10 11:25:26;;;;;;;1.00;0.63;;;12.60;99.90;;;;;;5055849;28;20801;-66
2023/03/10 11:28:27;;;;;;;3.90;0.60;;;12.60;99.90;;;;;;5055606;28;20453;-69
2023/03/10 11:31:02;;;;;;;0.33;0.33;;;12.60;99.90;;;;;;5054890;28;20556;-68
2023/03/10 11:33:34;;;;;;;2.27;0.70;;;12.50;99.90;;;;;;5055553;28;20446;-68
2023/03/10 11:36:51;;;;;;;0.60;0.60;;;12.60;99.90;;;;;;5055740;28;20472;-67
2023/03/10 11:39:33;;;;;;;0.80;0.70;;;12.70;99.90;;;;;;5033087;28;20424;-68
2023/03/10 11:42:27;;;;;;;0.70;0.60;;;12.80;99.90;;;;;;5052571;28;20513;-68
2023/03/10 11:45:21;;;;;;;0.70;0.60;;;12.80;99.90;;;;;;5018694;28;20439;-67
2023/03/10 11:48:15;;;;;;;1.80;1.00;;;12.90;99.90;;;;;;5055479;28;20485;-67
2023/03/10 11:50:47;;;;;;;1.00;0.63;;;12.90;99.90;;;;;;5055705;28;20490;-68
2023/03/10 11:53:37;;;;;;;0.93;0.77;;;12.90;99.90;;;;;;5055522;28;20400;-67
2023/03/10 11:56:06;;;;;;;0.60;0.60;;;12.90;99.90;;;;;;5055445;28;20404;-69
2023/03/10 11:58:41;;;;;;;0.60;0.60;;;12.90;99.90;;;;;;5055544;28;20411;-70
2023/03/10 12:01:10;;;;;;;7.60;3.50;;;13.00;99.90;;;;;;5055486;28;20407;-70
2023/03/10 12:03:47;;;;;;;1.17;0.87;;;13.00;99.90;;;;;;5054900;28;20408;-68
2023/03/10 12:06:19;;;;;;;0.80;0.80;;;13.10;99.90;;;;;;5055163;28;20461;-64
2023/03/10 12:08:48;;;;;;;0.57;0.53;;;13.00;99.90;;;;;;5055556;28;20399;-68
2023/03/10 12:11:22;;;;;;;0.80;0.50;;;13.00;99.90;;;;;;5055136;28;20767;-71
2023/03/10 12:13:51;;;;;;;0.47;0.47;;;12.90;99.90;;;;;;5054795;28;20398;-71
2023/03/10 12:16:24;;;;;;;2.87;0.63;;;12.90;99.90;;;;;;5055282;28;20463;-71
2023/03/10 12:18:50;;;;;;;0.87;0.47;;;12.80;99.90;;;;;;5055240;28;20410;-71
2023/03/10 12:21:21;;;;;;;0.40;0.40;;;12.80;99.90;;;;;;5055672;28;20445;-71
2023/03/10 12:23:52;;;;;;;0.90;0.60;;;12.80;99.90;;;;;;5055495;28;20431;-72
2023/03/10 12:26:36;;;;;;;0.97;0.87;;;12.80;99.90;;;;;;5055832;28;20489;-71
2023/03/10 12:29:20;;;;;;;10.60;7.30;;;12.90;99.90;;;;;;5056295;28;20403;-71
2023/03/10 12:31:48;;;;;;;0.87;0.87;;;13.00;99.90;;;;;;5055511;28;20426;-71
2023/03/10 12:34:30;;;;;;;1.80;0.50;;;13.10;99.90;;;;;;5055222;28;20449;-72
2023/03/10 12:37:05;;;;;;;5.10;0.67;;;13.20;99.90;;;;;;5038186;28;20415;-71
2023/03/10 12:39:40;;;;;;;0.40;0.40;;;13.00;99.90;;;;;;5055454;28;20486;-71
2023/03/10 12:42:31;;;;;;;0.40;0.40;;;13.00;99.90;;;;;;5055733;28;20481;-69
2023/03/10 12:45:19;;;;;;;0.40;0.40;;;12.90;99.90;;;;;;5052979;28;20435;-72
2023/03/10 12:48:10;;;;;;;0.30;0.30;;;12.80;99.90;;;;;;5055369;28;20476;-73
2023/03/10 12:50:57;;;;;;;0.30;0.30;;;12.60;99.90;;;;;;5054880;28;20481;-70
2023/03/10 12:53:38;;;;;;;0.50;0.37;;;12.60;99.90;;;;;;5053781;28;20822;-74
2023/03/10 12:56:13;;;;;;;0.30;0.30;;;12.50;99.90;;;;;;5054287;28;20414;-74
2023/03/10 12:58:46;;;;;;;0.60;0.30;;;12.40;99.90;;;;;;5054193;28;20933;-71
2023/03/10 13:01:17;;;;;;;0.40;0.40;;;12.40;99.90;;;;;;5054368;28;20442;-69
2023/03/10 13:03:45;;;;;;;0.40;0.40;;;12.40;99.90;;;;;;5054168;28;20403;-75
2023/03/10 13:06:12;;;;;;;0.97;0.40;;;12.50;99.90;;;;;;5051956;28;20989;-73
2023/03/10 13:09:13;;;;;;;0.40;0.40;;;12.60;99.90;;;;;;5052397;28;20459;-72
2023/03/10 13:11:41;;;;;;;0.73;0.73;;;12.70;99.90;;;;;;5051386;28;20393;-72
2023/03/10 13:14:17;;;;;;;1.17;0.77;;;12.70;99.90;;;;;;5051916;28;20541;-72
2023/03/10 13:16:54;;;;;;;0.30;0.30;;;12.60;99.90;;;;;;5052367;28;20433;-73
2023/03/10 13:19:22;;;;;;;0.60;0.40;;;12.60;99.90;;;;;;5052854;28;20784;-74
2023/03/10 13:21:49;;;;;;;0.60;0.60;;;12.50;99.90;;;;;;5051711;28;20423;-73
2023/03/10 13:24:37;;;;;;;0.40;0.33;;;12.50;99.90;;;;;;5052879;28;20973;-69
2023/03/10 13:27:15;;;;;;;0.83;0.50;;;12.40;99.90;;;;;;5037117;28;20463;-73
2023/03/10 13:30:19;;;;;;;1.23;0.40;;;12.40;99.90;;;;;;5051730;28;20947;-73
2023/03/10 13:32:55;;;;;;;0.83;0.57;;;12.30;99.90;;;;;;5051539;28;20378;-73
2023/03/10 13:35:25;;;;;;;0.53;0.47;;;12.20;99.90;;;;;;5050031;28;20841;-74
2023/03/10 13:38:09;;;;;;;0.50;0.50;;;12.20;99.90;;;;;;5050038;28;20448;-72
2023/03/10 13:40:37;;;;;;;1.73;0.50;;;12.10;99.90;;;;;;5051351;28;20385;-73
2023/03/10 13:43:06;;;;;;;0.50;0.50;;;12.00;99.90;;;;;;5051957;28;20390;-72
2023/03/10 13:45:33;;;;;;;0.40;0.40;;;11.90;99.90;;;;;;5052588;28;20875;-73
2023/03/10 13:48:03;;;;;;;0.60;0.60;;;11.60;99.90;;;;;;5052966;28;20490;-74
2023/03/10 13:50:28;;;;;;;0.63;0.40;;;11.50;99.90;;;;;;5052627;28;20422;-71
2023/03/10 13:52:58;;;;;;;1.13;0.40;;;11.30;99.90;;;;;;5053044;28;20811;-73
2023/03/10 13:55:25;;;;;;;0.50;0.50;;;11.10;99.90;;;;;;5052774;28;20188;-73
2023/03/10 13:57:52;;;;;;;0.40;0.40;;;10.90;99.90;;;;;;5053306;28;20537;-72
2023/03/10 14:00:20;;;;;;;0.80;0.80;;;10.70;99.90;;;;;;5053143;28;20170;-72
2023/03/10 14:02:52;;;;;;;0.68;0.57;;;10.60;99.90;;;;;;5052969;28;20174;-72
2023/03/10 14:05:44;;;;;;;0.40;0.40;;;10.50;99.90;;;;;;5052470;28;20615;-73
2023/03/10 14:08:19;;;;;;;1.70;0.40;;;10.50;99.90;;;;;;5053239;28;20189;-73
2023/03/10 14:10:45;;;;;;;0.47;0.47;;;10.60;99.90;;;;;;5052879;28;20184;-73
2023/03/10 14:13:43;;;;;;;0.60;0.60;;;10.60;99.90;;;;;;5053284;28;20174;-70
2023/03/10 14:16:09;;;;;;;1.83;0.60;;;10.70;99.90;;;;;;5052975;28;20402;-72
2023/03/10 14:18:37;;;;;;;0.40;0.40;;;10.80;99.90;;;;;;5052640;28;20177;-72
2023/03/10 14:21:23;;;;;;;0.40;0.40;;;11.00;99.90;;;;;;5052838;28;20840;-70
2023/03/10 14:23:50;;;;;;;0.43;0.43;;;11.10;99.90;;;;;;5052404;28;20179;-71
2023/03/10 14:26:16;;;;;;;0.40;0.40;;;11.30;99.90;;;;;;5052937;28;20200;-74
2023/03/10 14:28:42;;;;;;;0.47;0.47;;;11.40;99.90;;;;;;5051054;28;20425;-73
2023/03/10 14:31:20;;;;;;;0.30;0.30;;;11.40;99.90;;;;;;5052410;28;20717;-74
2023/03/10 14:33:46;;;;;;;0.50;0.50;;;11.30;99.90;;;;;;5032309;28;20255;-74
2023/03/10 14:36:12;;;;;;;0.57;0.40;;;11.30;99.90;;;;;;5053016;28;20491;-71
2023/03/10 14:38:38;;;;;;;0.50;0.50;;;11.20;99.90;;;;;;5052985;28;20182;-72
2023/03/10 14:41:04;;;;;;;0.40;0.40;;;11.20;99.90;;;;;;5053160;28;20684;-72
2023/03/10 14:43:30;;;;;;;0.30;0.30;;;11.20;99.90;;;;;;5052767;28;20525;-72
2023/03/10 14:45:59;;;;;;;0.50;0.50;;;11.10;99.90;;;;;;5052997;28;20281;-69
2023/03/10 14:48:28;;;;;;;0.50;0.50;;;11.10;99.90;;;;;;5056637;28;20777;-73
2023/03/10 14:50:54;;;;;;;0.50;0.50;;;11.00;99.90;;;;;;5056937;28;20430;-71
2023/03/10 14:53:23;;;;;;;1.03;0.60;;;11.00;99.90;;;;;;5055927;28;20828;-73
2023/03/10 14:55:50;;;;;;;0.40;0.40;;;10.90;99.90;;;;;;5035198;28;20508;-72
2023/03/10 14:58:22;;;;;;;0.40;0.40;;;10.90;99.90;;;;;;5055364;28;20417;-74
2023/03/10 15:00:49;;;;;;;0.40;0.40;;;10.90;99.90;;;;;;5056298;28;20569;-74
2023/03/10 15:03:15;;;;;;;0.40;0.40;;;10.80;99.90;;;;;;5054109;28;20474;-74
2023/03/10 15:05:41;;;;;;;0.93;0.70;;;10.80;99.90;;;;;;5056162;28;20880;-73
2023/03/10 15:08:07;;;;;;;0.50;0.50;;;10.70;99.90;;;;;;5056570;28;20202;-73
2023/03/10 15:10:36;;;;;;;0.30;0.30;;;10.70;99.90;;;;;;5056527;28;20165;-72
2023/03/10 15:13:02;;;;;;;0.38;0.38;;;10.70;99.90;;;;;;5055486;28;20473;-71
2023/03/10 15:15:41;;;;;;;0.40;0.40;;;10.60;99.90;;;;;;5056347;28;20584;-73
2023/03/10 15:18:11;;;;;;;0.60;0.33;;;10.50;99.90;;;;;;5055153;28;20173;-72
2023/03/10 15:20:37;;;;;;;0.50;0.30;;;10.40;99.90;;;;;;5054828;28;20422;-71
2023/03/10 15:23:03;;;;;;;0.30;0.30;;;10.30;99.90;;;;;;5055472;28;20653;-73
2023/03/10 15:25:28;;;;;;;0.60;0.40;;;10.20;99.90;;;;;;5055803;28;20198;-72
2023/03/10 15:27:54;;;;;;;0.40;0.40;;;10.20;99.90;;;;;;5055760;28;20232;-72
2023/03/10 15:30:29;;;;;;;0.60;0.43;;;10.20;99.90;;;;;;5055260;28;20223;-72
2023/03/10 15:32:55;;;;;;;0.30;0.30;;;10.20;99.90;;;;;;5054466;28;20169;-70
2023/03/10 15:35:21;;;;;;;0.30;0.30;;;10.10;99.90;;;;;;5055714;28;20189;-72
2023/03/10 15:37:48;;;;;;;0.30;0.30;;;10.00;99.90;;;;;;5055290;28;20256;-72
2023/03/10 15:40:21;;;;;;;0.30;0.30;;;10.00;99.90;;;;;;5055935;28;20504;-73
2023/03/10 15:42:47;;;;;;;0.40;0.40;;;9.90;99.90;;;;;;5044730;28;20714;-73
2023/03/10 15:45:14;;;;;;;0.30;0.30;;;9.90;99.90;;;;;;5055441;28;20229;-72
2023/03/10 15:47:40;;;;;;;0.40;0.40;;;9.90;99.90;;;;;;5055894;28;20204;-72
2023/03/10 15:50:07;;;;;;;1.85;0.40;;;9.90;99.90;;;;;;5055595;28;20622;-74
2023/03/10 15:52:33;;;;;;;0.50;0.35;;;9.80;99.90;;;;;;5055713;28;20169;-72
2023/03/10 15:54:59;;;;;;;0.30;0.30;;;9.80;99.90;;;;;;5055018;28;20193;-72
2023/03/10 15:57:25;;;;;;;0.50;0.50;;;9.70;99.90;;;;;;5053748;28;20705;-72
2023/03/10 15:59:50;;;;;;;1.53;0.40;;;9.70;99.90;;;;;;5054918;28;20919;-72
2023/03/10 16:02:17;;;;;;;0.63;0.63;;;9.60;99.90;;;;;;5054126;28;20173;-72
2023/03/10 16:04:43;;;;;;;0.75;0.75;;;9.60;99.90;;;;;;5054939;28;20189;-71
2023/03/10 16:07:10;;;;;;;0.73;0.53;;;9.60;99.90;;;;;;5055272;28;20201;-73
2023/03/10 16:09:36;;;;;;;0.50;0.50;;;9.70;99.90;;;;;;5055432;28;20503;-72
2023/03/10 16:12:02;;;;;;;2.00;1.07;;;9.60;99.90;;;;;;5053552;28;20184;-70
2023/03/10 16:14:29;;;;;;;0.50;0.50;;;9.60;99.90;;;;;;5054833;28;20426;-71
2023/03/10 16:16:57;;;;;;;0.63;0.50;;;9.70;99.90;;;;;;5055310;28;20407;-71
2023/03/10 16:19:24;;;;;;;0.57;0.57;;;9.70;99.90;;;;;;5055044;28;20227;-73
2023/03/10 16:21:51;;;;;;;0.93;0.60;;;9.80;99.90;;;;;;5054637;28;20188;-72
2023/03/10 16:24:17;;;;;;;0.63;0.63;;;9.80;99.90;;;;;;5054323;28;20620;-71
2023/03/10 16:26:44;;;;;;;0.70;0.70;;;9.90;99.90;;;;;;5054928;28;20243;-74
2023/03/10 16:29:09;;;;;;;0.80;0.80;;;10.00;99.90;;;;;;5054535;28;20173;-74
2023/03/10 16:31:37;;;;;;;2.20;0.60;;;10.10;99.90;;;;;;5053446;28;20180;-73
2023/03/10 16:34:04;;;;;;;1.05;0.70;;;10.10;99.90;;;;;;5053390;28;20432;-72
2023/03/10 16:36:29;;;;;;;1.80;1.20;;;10.10;99.90;;;;;;5053389;28;20231;-72
2023/03/10 16:38:55;;;;;;;1.27;1.00;;;10.00;99.90;;;;;;5055051;28;20551;-71
2023/03/10 16:41:21;;;;;;;1.00;1.00;;;9.80;99.90;;;;;;5054842;28;20411;-73
2023/03/10 16:43:48;;;;;;;2.05;1.65;;;9.70;99.90;;;;;;5054011;28;20197;-72
2023/03/10 16:46:24;;;;;;;0.65;0.65;;;9.60;99.90;;;;;;5054110;28;20208;-73
2023/03/10 16:48:51;;;;;;;1.52;1.42;;;9.50;99.90;;;;;;5054816;28;20165;-73
2023/03/10 16:51:18;;;;;;;1.20;1.05;;;9.30;99.90;;;;;;5054098;28;20170;-73
2023/03/10 16:53:45;;;;;;;1.25;1.10;;;9.30;99.90;;;;;;5053256;28;20188;-71
2023/03/10 16:56:10;;;;;;;1.08;1.08;;;9.20;99.90;;;;;;5054498;28;20177;-70
2023/03/10 16:58:36;;;;;;;2.13;0.87;;;9.20;99.90;;;;;;5054139;28;20173;-73
2023/03/10 17:01:02;;;;;;;2.23;1.33;;;9.10;99.90;;;;;;5052828;28;20184;-70
2023/03/10 17:03:27;;;;;;;0.80;0.80;;;9.10;99.90;;;;;;5054073;28;20244;-73
2023/03/10 17:05:53;;;;;;;0.87;0.87;;;8.90;99.90;;;;;;5053912;28;20263;-72
2023/03/10 17:08:22;;;;;;;0.87;0.83;;;8.80;99.90;;;;;;5053980;28;20220;-70
2023/03/10 17:10:48;;;;;;;0.80;0.80;;;8.60;99.90;;;;;;5052621;28;20177;-73
2023/03/10 17:13:14;;;;;;;0.90;0.90;;;8.50;99.90;;;;;;5053673;28;20984;-70
2023/03/10 17:15:39;;;;;;;2.35;0.80;;;8.40;99.90;;;;;;5054072;28;20549;-70
2023/03/10 17:18:05;;;;;;;0.87;0.87;;;8.40;99.90;;;;;;5052123;28;20244;-70
2023/03/10 17:20:31;;;;;;;1.93;1.40;;;8.30;99.90;;;;;;5054714;28;20177;-70
2023/03/10 17:22:56;;;;;;;0.70;0.70;;;8.20;99.90;;;;;;5053485;28;20169;-69
2023/03/10 17:25:22;;;;;;;6.93;1.27;;;8.20;99.90;;;;;;5053550;28;20293;-69
2023/03/10 17:27:48;;;;;;;3.43;1.07;;;8.10;99.90;;;;;;5053553;28;20230;-69
2023/03/10 17:30:14;;;;;;;5.70;1.50;;;8.10;99.90;;;;;;5053892;28;20175;-68
2023/03/10 17:32:40;;;;;;;0.82;0.55;;;8.00;99.90;;;;;;5053488;28;20272;-69
2023/03/10 17:35:06;;;;;;;1.90;0.90;;;7.90;99.90;;;;;;5053508;28;20657;-68
2023/03/10 17:37:32;;;;;;;1.70;0.90;;;7.80;99.90;;;;;;5053954;28;20429;-70
2023/03/10 17:39:57;;;;;;;4.40;1.00;;;7.80;99.90;;;;;;5040848;28;20958;-71
2023/03/10 17:42:24;;;;;;;3.90;1.00;;;7.80;99.90;;;;;;5033403;28;20192;-70
2023/03/10 17:44:50;;;;;;;5.95;1.73;;;7.70;99.90;;;;;;5033144;28;20639;-69
2023/03/10 17:47:15;;;;;;;0.80;0.77;;;7.70;99.90;;;;;;5043713;28;20223;-73
2023/03/10 17:49:41;;;;;;;0.60;0.60;;;7.70;99.90;;;;;;5052625;28;20177;-71
2023/03/10 17:52:07;;;;;;;1.43;1.33;;;7.70;99.90;;;;;;5053560;28;20180;-74
2023/03/10 17:54:33;;;;;;;1.37;1.27;;;7.80;99.90;;;;;;5052863;28;20188;-70
2023/03/10 17:56:59;;;;;;;2.22;0.90;;;7.80;99.90;;;;;;5053165;28;20442;-71
2023/03/10 17:59:24;;;;;;;5.57;1.30;;;7.80;99.90;;;;;;5053610;28;20181;-73
2023/03/10 18:01:50;;;;;;;0.83;0.83;;;7.80;99.90;;;;;;5052974;28;20186;-71
2023/03/10 18:04:15;;;;;;;1.80;0.90;;;7.90;99.90;;;;;;5052423;28;20525;-72
2023/03/10 18:06:41;;;;;;;3.63;1.97;;;8.00;99.90;;;;;;5053154;28;20215;-72